createdAt,value
2023-03-31T00:00:29.609Z,11.90
2023-03-31T00:01:11.346Z,11.92
2023-03-31T00:01:54.273Z,11.97
2023-03-31T00:02:37.144Z,11.91
2023-03-31T00:03:22.478Z,12.03
2023-03-31T00:04:05.606Z,12.07
2023-03-31T00:04:53.081Z,12.09
2023-03-31T00:05:37.349Z,12.12
2023-03-31T00:06:19.524Z,12.02
2023-03-31T00:07:01.242Z,12.00
2023-03-31T00:07:44.035Z,11.98
2023-03-31T00:08:30.315Z,11.94
2023-03-31T00:09:18.966Z,11.94
2023-03-31T00:10:16.564Z,11.87
2023-03-31T00:11:00.736Z,11.81
2023-03-31T00:11:42.353Z,11.76
2023-03-31T00:12:23.934Z,11.71
2023-03-31T00:13:05.612Z,11.70
2023-03-31T00:13:47.743Z,11.53
2023-03-31T00:14:29.396Z,11.60
2023-03-31T00:15:11.228Z,11.45
2023-03-31T00:16:05.072Z,11.45
2023-03-31T00:16:47.353Z,11.37
2023-03-31T00:17:29.148Z,11.39
2023-03-31T00:18:10.858Z,11.29
2023-03-31T00:18:52.631Z,11.43
2023-03-31T00:19:34.364Z,11.33
2023-03-31T00:20:17.234Z,11.35
2023-03-31T00:21:24.915Z,11.42
2023-03-31T00:22:07.877Z,11.32
2023-03-31T00:22:49.476Z,11.35
2023-03-31T00:23:31.590Z,11.24
2023-03-31T00:24:14.705Z,11.34
2023-03-31T00:24:56.396Z,11.26
2023-03-31T00:25:41.840Z,11.23
2023-03-31T00:26:24.603Z,11.33
2023-03-31T00:27:06.310Z,11.33
2023-03-31T00:27:50.327Z,11.33
2023-03-31T00:28:32.090Z,11.36
2023-03-31T00:29:14.285Z,11.38
2023-03-31T00:29:56.298Z,11.47
2023-03-31T00:30:37.944Z,11.52
2023-03-31T00:31:20.888Z,11.50
2023-03-31T00:32:02.923Z,11.51
2023-03-31T00:32:44.867Z,11.65
2023-03-31T00:33:26.728Z,11.69
2023-03-31T00:34:08.714Z,11.73
2023-03-31T00:34:50.330Z,11.62
2023-03-31T00:35:39.336Z,11.81
2023-03-31T00:36:21.699Z,11.82
2023-03-31T00:37:04.312Z,11.82
2023-03-31T00:37:47.134Z,11.80
2023-03-31T00:38:30.101Z,11.81
2023-03-31T00:39:12.171Z,11.79
2023-03-31T00:39:54.096Z,11.82
2023-03-31T00:40:36.213Z,11.81
2023-03-31T00:41:18.100Z,11.69
2023-03-31T00:42:02.721Z,11.62
2023-03-31T00:42:46.433Z,11.71
2023-03-31T00:43:35.911Z,11.66
2023-03-31T00:44:24.413Z,11.73
2023-03-31T00:45:15.412Z,11.75
2023-03-31T00:46:22.338Z,11.68
2023-03-31T00:47:18.044Z,11.79
2023-03-31T00:48:13.498Z,11.79
2023-03-31T00:48:57.789Z,11.79
2023-03-31T00:49:42.402Z,11.97
2023-03-31T00:50:31.352Z,12.03
2023-03-31T00:51:14.464Z,12.05
2023-03-31T00:52:07.130Z,12.01
2023-03-31T00:52:55.590Z,12.03
2023-03-31T00:53:37.801Z,12.10
2023-03-31T00:54:21.528Z,12.08
2023-03-31T00:55:10.853Z,12.08
2023-03-31T00:55:57.306Z,12.10
2023-03-31T00:56:43.977Z,12.07
2023-03-31T00:57:28.606Z,12.15
2023-03-31T00:58:14.575Z,12.14
2023-03-31T00:59:01.568Z,12.14
2023-03-31T00:59:49.440Z,12.12
2023-03-31T01:00:31.108Z,12.04
2023-03-31T01:01:24.805Z,11.95
2023-03-31T01:02:07.574Z,12.00
2023-03-31T01:02:58.766Z,11.93
2023-03-31T01:03:42.444Z,11.95
2023-03-31T01:04:24.138Z,11.91
2023-03-31T01:05:06.195Z,11.87
2023-03-31T01:05:53.357Z,11.98
2023-03-31T01:06:46.585Z,12.01
2023-03-31T01:07:42.138Z,11.92
2023-03-31T01:08:27.476Z,12.13
2023-03-31T01:09:09.970Z,12.08
2023-03-31T01:09:55.055Z,12.20
2023-03-31T01:10:41.845Z,12.23
2023-03-31T01:11:27.469Z,12.31
2023-03-31T01:12:10.822Z,12.33
2023-03-31T01:12:54.909Z,12.35
2023-03-31T01:13:39.077Z,12.37
2023-03-31T01:14:24.162Z,12.30
2023-03-31T01:15:06.977Z,12.42
2023-03-31T01:15:48.902Z,12.43
2023-03-31T01:16:30.623Z,12.41
2023-03-31T01:17:18.984Z,12.44
2023-03-31T01:18:01.126Z,12.45
2023-03-31T01:18:46.322Z,12.46
2023-03-31T01:20:01.559Z,12.48
2023-03-31T01:20:47.336Z,12.48
2023-03-31T01:22:05.462Z,12.48
2023-03-31T01:23:09.694Z,12.48
2023-03-31T01:24:18.596Z,12.48
2023-03-31T01:25:12.489Z,12.52
2023-03-31T01:26:25.223Z,12.56
2023-03-31T01:27:27.063Z,12.62
2023-03-31T01:28:11.550Z,12.67
2023-03-31T01:29:11.435Z,12.72
2023-03-31T01:30:07.048Z,12.64
2023-03-31T01:31:00.196Z,12.69
2023-03-31T01:32:11.051Z,12.79
2023-03-31T01:33:29.936Z,12.82
2023-03-31T01:34:45.444Z,12.86
2023-03-31T01:35:51.018Z,12.94
2023-03-31T01:36:46.873Z,12.97
2023-03-31T01:37:37.883Z,12.96
2023-03-31T01:38:41.132Z,12.99
2023-03-31T01:40:00.956Z,13.00
2023-03-31T01:41:04.462Z,12.95
2023-03-31T01:42:06.081Z,12.90
2023-03-31T01:43:14.336Z,12.95
2023-03-31T01:44:16.432Z,12.99
2023-03-31T01:45:22.834Z,13.01
2023-03-31T01:46:25.135Z,12.97
2023-03-31T01:47:22.827Z,12.87
2023-03-31T01:48:21.240Z,12.95
2023-03-31T01:49:12.003Z,13.04
2023-03-31T01:50:05.738Z,13.03
2023-03-31T01:51:03.964Z,13.03
2023-03-31T01:52:18.430Z,13.03
2023-03-31T01:53:20.966Z,13.05
2023-03-31T01:54:31.850Z,13.00
2023-03-31T01:55:35.827Z,12.94
2023-03-31T01:56:35.794Z,12.91
2023-03-31T01:57:24.853Z,12.91
2023-03-31T01:58:13.118Z,12.83
2023-03-31T01:59:29.688Z,12.90
2023-03-31T02:00:14.854Z,12.84
2023-03-31T02:01:04.154Z,12.92
2023-03-31T02:01:55.347Z,12.84
2023-03-31T02:02:57.849Z,12.84
2023-03-31T02:03:56.333Z,12.79
2023-03-31T02:05:05.356Z,12.70
2023-03-31T02:05:54.077Z,12.81
2023-03-31T02:06:40.730Z,12.84
2023-03-31T02:07:28.969Z,12.85
2023-03-31T02:08:14.977Z,12.75
2023-03-31T02:09:02.181Z,12.85
2023-03-31T02:09:49.410Z,12.81
2023-03-31T02:10:33.146Z,12.78
2023-03-31T02:11:15.702Z,12.65
2023-03-31T02:11:59.303Z,12.74
2023-03-31T02:12:43.925Z,12.84
2023-03-31T02:13:29.327Z,12.77
2023-03-31T02:14:19.085Z,12.83
2023-03-31T02:15:03.444Z,12.77
2023-03-31T02:15:50.559Z,12.86
2023-03-31T02:16:37.810Z,12.96
2023-03-31T02:17:23.189Z,12.94
2023-03-31T02:18:11.530Z,12.87
2023-03-31T02:19:02.209Z,12.92
2023-03-31T02:19:51.589Z,12.94
2023-03-31T02:20:33.786Z,12.86
2023-03-31T02:21:16.457Z,12.88
2023-03-31T02:21:59.725Z,12.88
2023-03-31T02:22:46.177Z,12.82
2023-03-31T02:23:32.464Z,13.01
2023-03-31T02:24:15.805Z,13.00
2023-03-31T02:25:01.971Z,12.89
2023-03-31T02:25:54.441Z,12.99
2023-03-31T02:26:42.646Z,12.97
2023-03-31T02:27:33.117Z,12.98
2023-03-31T02:28:21.741Z,13.05
2023-03-31T02:29:03.638Z,12.94
2023-03-31T02:29:45.467Z,12.92
2023-03-31T02:30:36.526Z,12.91
2023-03-31T02:31:31.077Z,12.79
2023-03-31T02:32:21.073Z,12.76
2023-03-31T02:33:04.682Z,12.79
2023-03-31T02:33:47.706Z,12.88
2023-03-31T02:34:29.683Z,12.79
2023-03-31T02:35:15.644Z,12.90
2023-03-31T02:35:59.407Z,12.87
2023-03-31T02:36:44.088Z,12.95
2023-03-31T02:37:27.320Z,12.90
2023-03-31T02:38:09.492Z,12.91
2023-03-31T02:39:08.445Z,12.85
2023-03-31T02:39:53.542Z,12.78
2023-03-31T02:40:35.242Z,12.75
2023-03-31T02:41:16.992Z,12.73
2023-03-31T02:41:59.101Z,12.72
2023-03-31T02:42:41.889Z,12.67
2023-03-31T02:43:23.592Z,12.70
2023-03-31T02:44:05.505Z,12.68
2023-03-31T02:44:47.255Z,12.77
2023-03-31T02:45:46.139Z,12.76
2023-03-31T02:46:29.934Z,12.79
2023-03-31T02:47:17.933Z,12.77
2023-03-31T02:47:59.989Z,12.69
2023-03-31T02:48:47.973Z,12.55
2023-03-31T02:49:30.152Z,12.70
2023-03-31T02:50:12.073Z,12.64
2023-03-31T02:51:09.213Z,12.76
2023-03-31T02:52:11.195Z,12.78
2023-03-31T02:53:22.414Z,12.77
2023-03-31T02:54:25.603Z,12.69
2023-03-31T02:55:28.096Z,12.77
2023-03-31T02:56:23.205Z,12.59
2023-03-31T02:57:29.773Z,12.75
2023-03-31T02:58:20.656Z,12.75
2023-03-31T02:59:10.131Z,12.72
2023-03-31T03:00:04.804Z,12.67
2023-03-31T03:01:21.899Z,12.63
2023-03-31T03:02:31.711Z,12.59
2023-03-31T03:03:22.533Z,12.59
2023-03-31T03:04:19.224Z,12.58
2023-03-31T03:05:06.754Z,12.58
2023-03-31T03:06:05.027Z,12.59
2023-03-31T03:07:11.686Z,12.61
2023-03-31T03:08:39.570Z,12.61
2023-03-31T03:09:36.222Z,12.57
2023-03-31T03:10:26.756Z,12.55
2023-03-31T03:11:32.152Z,12.52
2023-03-31T03:12:26.387Z,12.49
2023-03-31T03:13:20.187Z,12.45
2023-03-31T03:14:23.863Z,12.41
2023-03-31T03:15:13.314Z,12.37
2023-03-31T03:16:13.861Z,12.16
2023-03-31T03:17:02.770Z,12.38
2023-03-31T03:17:47.048Z,12.41
2023-03-31T03:18:29.200Z,12.30
2023-03-31T03:19:19.869Z,12.46
2023-03-31T03:20:09.208Z,12.47
2023-03-31T03:20:50.953Z,12.37
2023-03-31T03:21:33.183Z,12.47
2023-03-31T03:22:14.917Z,12.38
2023-03-31T03:22:56.616Z,12.49
2023-03-31T03:23:38.228Z,12.45
2023-03-31T03:24:24.116Z,12.47
2023-03-31T03:25:07.266Z,12.47
2023-03-31T03:25:48.916Z,12.34
2023-03-31T03:26:30.608Z,12.36
2023-03-31T03:27:12.263Z,12.41
2023-03-31T03:27:53.873Z,12.48
2023-03-31T03:28:35.535Z,12.38
2023-03-31T03:29:17.424Z,12.50
2023-03-31T03:29:59.200Z,12.46
2023-03-31T03:30:41.330Z,12.50
2023-03-31T03:31:26.003Z,12.51
2023-03-31T03:32:09.244Z,12.48
2023-03-31T03:32:51.020Z,12.47
2023-03-31T03:33:32.752Z,12.44
2023-03-31T03:34:14.328Z,12.37
2023-03-31T03:34:55.925Z,12.44
2023-03-31T03:35:37.682Z,12.32
2023-03-31T03:36:19.821Z,12.37
2023-03-31T03:37:01.652Z,12.20
2023-03-31T03:37:43.340Z,12.08
2023-03-31T03:38:25.025Z,12.16
2023-03-31T03:39:07.800Z,12.28
2023-03-31T03:39:49.474Z,12.28
2023-03-31T03:40:31.173Z,12.18
2023-03-31T03:41:12.855Z,12.26
2023-03-31T03:41:54.562Z,12.22
2023-03-31T03:42:36.302Z,12.26
2023-03-31T03:43:17.895Z,12.30
2023-03-31T03:44:00.347Z,12.31
2023-03-31T03:44:42.107Z,12.17
2023-03-31T03:45:23.785Z,12.34
2023-03-31T03:46:05.748Z,12.35
2023-03-31T03:46:47.929Z,12.32
2023-03-31T03:47:29.735Z,12.29
2023-03-31T03:48:11.435Z,12.27
2023-03-31T03:48:53.380Z,12.35
2023-03-31T03:49:35.105Z,12.36
2023-03-31T03:50:16.915Z,12.26
2023-03-31T03:51:01.341Z,12.30
2023-03-31T03:51:43.069Z,12.26
2023-03-31T03:52:24.714Z,12.26
2023-03-31T03:53:06.404Z,12.30
2023-03-31T03:53:48.125Z,12.19
2023-03-31T03:54:29.928Z,12.16
2023-03-31T03:55:12.177Z,12.08
2023-03-31T03:55:53.959Z,12.14
2023-03-31T03:56:35.814Z,12.07
2023-03-31T03:57:17.488Z,12.05
2023-03-31T03:57:59.160Z,12.01
2023-03-31T03:58:40.818Z,11.95
2023-03-31T03:59:22.964Z,11.92
2023-03-31T04:00:10.250Z,11.82
2023-03-31T04:00:53.279Z,11.85
2023-03-31T04:01:35.109Z,11.78
2023-03-31T04:02:17.061Z,11.74
2023-03-31T04:03:01.794Z,11.79
2023-03-31T04:03:44.007Z,11.74
2023-03-31T04:04:25.811Z,11.60
2023-03-31T04:05:07.908Z,11.54
2023-03-31T04:05:50.422Z,11.49
2023-03-31T04:06:32.018Z,11.48
2023-03-31T04:07:13.714Z,11.45
2023-03-31T04:07:55.453Z,11.50
2023-03-31T04:08:37.104Z,11.48
2023-03-31T04:09:18.788Z,11.38
2023-03-31T04:10:00.739Z,11.43
2023-03-31T04:10:47.135Z,11.46
2023-03-31T04:11:28.945Z,11.39
2023-03-31T04:12:10.810Z,11.43
2023-03-31T04:12:52.446Z,11.34
2023-03-31T04:13:34.261Z,11.35
2023-03-31T04:14:15.912Z,11.45
2023-03-31T04:14:57.566Z,11.41
2023-03-31T04:15:39.191Z,11.29
2023-03-31T04:16:22.946Z,11.47
2023-03-31T04:17:04.644Z,11.62
2023-03-31T04:17:50.678Z,11.65
2023-03-31T04:18:32.517Z,11.66
2023-03-31T04:19:17.544Z,11.69
2023-03-31T04:20:05.940Z,11.67
2023-03-31T04:20:54.612Z,11.62
2023-03-31T04:21:36.339Z,11.70
2023-03-31T04:22:20.571Z,11.68
2023-03-31T04:23:02.664Z,11.67
2023-03-31T04:23:47.162Z,11.23
2023-03-31T04:24:32.909Z,11.65
2023-03-31T04:25:16.348Z,11.60
2023-03-31T04:25:58.220Z,11.59
2023-03-31T04:26:43.182Z,11.56
2023-03-31T04:27:27.721Z,11.40
2023-03-31T04:28:10.544Z,11.33
2023-03-31T04:28:52.442Z,11.47
2023-03-31T04:29:37.189Z,11.62
2023-03-31T04:30:30.705Z,11.59
2023-03-31T04:31:25.402Z,11.53
2023-03-31T04:32:07.432Z,11.65
2023-03-31T04:32:55.131Z,11.58
2023-03-31T04:33:39.800Z,11.49
2023-03-31T04:34:22.146Z,11.41
2023-03-31T04:35:04.952Z,11.53
2023-03-31T04:35:50.428Z,11.68
2023-03-31T04:36:33.293Z,11.73
2023-03-31T04:37:14.957Z,11.71
2023-03-31T04:37:59.121Z,11.65
2023-03-31T04:38:40.984Z,11.63
2023-03-31T04:39:26.759Z,11.62
2023-03-31T04:40:09.963Z,11.54
2023-03-31T04:40:53.214Z,11.63
2023-03-31T04:41:34.820Z,11.51
2023-03-31T04:42:16.436Z,11.60
2023-03-31T04:42:58.187Z,11.58
2023-03-31T04:43:39.964Z,11.63
2023-03-31T04:44:21.562Z,11.67
2023-03-31T04:45:04.037Z,11.64
2023-03-31T04:45:46.282Z,11.72
2023-03-31T04:46:28.139Z,11.72
2023-03-31T04:47:09.803Z,11.70
2023-03-31T04:47:51.442Z,11.68
2023-03-31T04:48:33.313Z,11.82
2023-03-31T04:49:15.646Z,11.83
2023-03-31T04:49:57.374Z,11.85
2023-03-31T04:50:39.161Z,11.78
2023-03-31T04:51:20.874Z,11.88
2023-03-31T04:52:02.495Z,11.90
2023-03-31T04:52:44.352Z,11.81
2023-03-31T04:53:26.342Z,11.78
2023-03-31T04:54:07.973Z,11.89
2023-03-31T04:54:49.615Z,12.00
2023-03-31T04:55:31.699Z,12.04
2023-03-31T04:56:13.434Z,11.94
2023-03-31T04:56:55.382Z,12.05
2023-03-31T04:57:37.317Z,11.97
2023-03-31T04:58:19.370Z,11.96
2023-03-31T04:59:01.196Z,11.99
2023-03-31T04:59:42.811Z,11.92
2023-03-31T05:00:24.657Z,11.86
2023-03-31T05:01:06.477Z,11.67
2023-03-31T05:01:48.265Z,11.62
2023-03-31T05:02:30.077Z,11.55
2023-03-31T05:03:11.957Z,11.60
2023-03-31T05:03:53.755Z,11.43
2023-03-31T05:04:35.929Z,11.43
2023-03-31T05:05:18.107Z,11.45
2023-03-31T05:06:00.221Z,11.47
2023-03-31T05:06:41.962Z,11.33
2023-03-31T05:07:23.828Z,11.47
2023-03-31T05:08:05.769Z,11.56
2023-03-31T05:08:47.511Z,11.48
2023-03-31T05:09:29.128Z,11.59
2023-03-31T05:10:11.095Z,11.70
2023-03-31T05:10:53.147Z,11.71
2023-03-31T05:11:34.894Z,11.67
2023-03-31T05:12:16.625Z,11.71
2023-03-31T05:12:58.358Z,11.84
2023-03-31T05:13:39.979Z,11.85
2023-03-31T05:14:21.736Z,11.88
2023-03-31T05:15:08.306Z,11.82
2023-03-31T05:15:51.552Z,11.88
2023-03-31T05:16:33.822Z,12.01
2023-03-31T05:17:17.944Z,12.04
2023-03-31T05:17:59.695Z,12.09
2023-03-31T05:18:41.796Z,12.08
2023-03-31T05:19:23.588Z,12.16
2023-03-31T05:20:06.911Z,12.20
2023-03-31T05:20:48.632Z,12.08
2023-03-31T05:21:31.259Z,12.20
2023-03-31T05:22:12.894Z,12.12
2023-03-31T05:22:54.556Z,12.04
2023-03-31T05:23:36.390Z,12.08
2023-03-31T05:24:18.034Z,12.15
2023-03-31T05:24:59.690Z,12.13
2023-03-31T05:25:42.255Z,12.05
2023-03-31T05:26:25.313Z,11.92
2023-03-31T05:27:07.003Z,12.07
2023-03-31T05:27:49.932Z,12.05
2023-03-31T05:28:32.589Z,12.01
2023-03-31T05:29:16.495Z,12.02
2023-03-31T05:29:58.520Z,11.94
2023-03-31T05:30:40.763Z,12.01
2023-03-31T05:31:22.784Z,11.92
2023-03-31T05:32:04.997Z,11.92
2023-03-31T05:32:46.822Z,11.99
2023-03-31T05:33:28.877Z,11.99
2023-03-31T05:34:10.730Z,11.81
2023-03-31T05:34:52.679Z,11.94
2023-03-31T05:35:34.429Z,11.83
2023-03-31T05:36:18.147Z,11.90
2023-03-31T05:37:00.035Z,11.80
2023-03-31T05:37:41.728Z,11.80
2023-03-31T05:38:23.412Z,11.80
2023-03-31T05:39:05.913Z,11.81
2023-03-31T05:39:47.580Z,11.73
2023-03-31T05:40:29.185Z,11.79
2023-03-31T05:41:11.819Z,11.68
2023-03-31T05:41:53.575Z,11.62
2023-03-31T05:42:36.087Z,11.72
2023-03-31T05:43:17.811Z,11.64
2023-03-31T05:43:59.825Z,11.71
2023-03-31T05:44:41.517Z,11.47
2023-03-31T05:45:23.624Z,11.53
2023-03-31T05:46:06.896Z,11.60
2023-03-31T05:46:48.914Z,11.64
2023-03-31T05:47:30.929Z,11.59
2023-03-31T05:48:12.957Z,11.65
2023-03-31T05:48:55.063Z,11.73
2023-03-31T05:49:37.930Z,11.60
2023-03-31T05:50:19.639Z,11.74
2023-03-31T05:51:01.850Z,11.72
2023-03-31T05:51:43.573Z,11.68
2023-03-31T05:52:25.234Z,11.60
2023-03-31T05:53:06.906Z,11.64
2023-03-31T05:53:48.590Z,11.60
2023-03-31T05:54:30.383Z,11.64
2023-03-31T05:55:13.222Z,11.65
2023-03-31T05:56:03.196Z,11.61
2023-03-31T05:56:45.342Z,11.50
2023-03-31T05:57:27.057Z,11.61
2023-03-31T05:58:08.738Z,11.60
2023-03-31T05:58:50.624Z,11.58
2023-03-31T05:59:32.335Z,11.47
2023-03-31T06:00:14.946Z,11.60
2023-03-31T06:01:11.653Z,11.64
2023-03-31T06:01:53.943Z,11.58
2023-03-31T06:02:35.763Z,11.67
2023-03-31T06:03:17.573Z,11.62
2023-03-31T06:03:59.397Z,11.61
2023-03-31T06:04:42.114Z,11.64
2023-03-31T06:05:26.533Z,11.59
2023-03-31T06:06:09.508Z,11.62
2023-03-31T06:06:51.283Z,11.50
2023-03-31T06:07:32.934Z,11.64
2023-03-31T06:08:14.568Z,11.63
2023-03-31T06:08:56.386Z,11.64
2023-03-31T06:09:38.074Z,11.51
2023-03-31T06:10:20.579Z,11.58
2023-03-31T06:11:07.939Z,11.56
2023-03-31T06:11:50.600Z,11.52
2023-03-31T06:12:32.853Z,11.56
2023-03-31T06:13:14.595Z,11.48
2023-03-31T06:13:56.406Z,11.52
2023-03-31T06:14:38.116Z,11.58
2023-03-31T06:15:19.780Z,11.52
2023-03-31T06:16:01.919Z,11.62
2023-03-31T06:16:43.670Z,11.65
2023-03-31T06:17:25.449Z,11.67
2023-03-31T06:18:10.514Z,11.69
2023-03-31T06:18:53.482Z,11.60
2023-03-31T06:19:35.232Z,11.71
2023-03-31T06:20:26.970Z,11.58
2023-03-31T06:21:17.292Z,11.69
2023-03-31T06:21:59.065Z,11.60
2023-03-31T06:22:40.751Z,11.64
2023-03-31T06:23:23.318Z,11.66
2023-03-31T06:24:05.281Z,11.46
2023-03-31T06:24:46.924Z,11.57
2023-03-31T06:25:34.548Z,11.64
2023-03-31T06:26:25.979Z,11.55
2023-03-31T06:27:07.689Z,11.56
2023-03-31T06:27:49.376Z,11.49
2023-03-31T06:28:31.255Z,11.42
2023-03-31T06:29:12.909Z,11.58
2023-03-31T06:29:54.801Z,11.51
2023-03-31T06:30:36.585Z,11.56
2023-03-31T06:31:20.973Z,11.60
2023-03-31T06:32:04.947Z,11.48
2023-03-31T06:32:47.046Z,11.61
2023-03-31T06:33:28.985Z,11.61
2023-03-31T06:34:10.828Z,11.62
2023-03-31T06:34:52.524Z,11.63
2023-03-31T06:35:38.389Z,11.58
2023-03-31T06:36:22.415Z,11.66
2023-03-31T06:37:04.116Z,11.64
2023-03-31T06:37:45.926Z,11.64
2023-03-31T06:38:28.417Z,11.68
2023-03-31T06:39:10.101Z,11.64
2023-03-31T06:39:51.776Z,11.50
2023-03-31T06:40:34.043Z,11.66
2023-03-31T06:41:17.165Z,11.63
2023-03-31T06:41:58.800Z,11.63
2023-03-31T06:42:42.841Z,11.64
2023-03-31T06:43:24.713Z,11.63
2023-03-31T06:44:06.401Z,11.56
2023-03-31T06:44:48.005Z,11.27
2023-03-31T06:45:29.757Z,11.62
2023-03-31T06:46:11.699Z,11.59
2023-03-31T06:46:53.786Z,11.67
2023-03-31T06:47:38.142Z,11.42
2023-03-31T06:48:20.340Z,11.59
2023-03-31T06:49:02.331Z,11.71
2023-03-31T06:49:44.049Z,11.69
2023-03-31T06:50:25.722Z,11.63
2023-03-31T06:51:08.691Z,11.70
2023-03-31T06:51:50.765Z,11.57
2023-03-31T06:52:32.554Z,11.70
2023-03-31T06:53:14.424Z,11.69
2023-03-31T06:53:56.137Z,11.68
2023-03-31T06:54:37.819Z,11.67
2023-03-31T06:55:19.425Z,11.50
2023-03-31T06:56:01.605Z,11.62
2023-03-31T06:56:43.305Z,11.66
2023-03-31T06:57:25.035Z,11.80
2023-03-31T06:58:06.742Z,11.81
2023-03-31T06:58:48.519Z,11.86
2023-03-31T06:59:30.207Z,11.90
2023-03-31T07:00:12.631Z,12.01
2023-03-31T07:00:54.376Z,11.99
2023-03-31T07:01:39.029Z,11.99
2023-03-31T07:02:21.133Z,11.87
2023-03-31T07:03:04.370Z,11.98
2023-03-31T07:03:46.291Z,11.92
2023-03-31T07:04:28.065Z,11.95
2023-03-31T07:05:09.758Z,12.01
2023-03-31T07:05:53.022Z,12.00
2023-03-31T07:06:35.447Z,12.06
2023-03-31T07:07:17.207Z,12.06
2023-03-31T07:07:59.829Z,12.07
2023-03-31T07:08:41.474Z,11.98
2023-03-31T07:09:23.582Z,11.97
2023-03-31T07:10:05.789Z,12.02
2023-03-31T07:10:49.046Z,12.06
2023-03-31T07:11:33.604Z,12.04
2023-03-31T07:12:15.521Z,12.11
2023-03-31T07:12:57.480Z,12.09
2023-03-31T07:13:39.305Z,12.15
2023-03-31T07:14:21.014Z,12.17
2023-03-31T07:15:02.764Z,12.20
2023-03-31T07:15:47.511Z,12.11
2023-03-31T07:16:29.312Z,12.23
2023-03-31T07:17:11.026Z,12.18
2023-03-31T07:17:53.950Z,12.28
2023-03-31T07:18:36.645Z,12.19
2023-03-31T07:19:19.186Z,12.16
2023-03-31T07:20:00.844Z,12.29
2023-03-31T07:20:43.669Z,12.29
2023-03-31T07:21:26.393Z,12.16
2023-03-31T07:22:08.966Z,12.24
2023-03-31T07:22:50.617Z,12.31
2023-03-31T07:23:32.429Z,12.31
2023-03-31T07:24:14.143Z,12.36
2023-03-31T07:24:56.612Z,12.40
2023-03-31T07:25:38.321Z,12.53
2023-03-31T07:26:20.081Z,12.57
2023-03-31T07:27:01.710Z,12.53
2023-03-31T07:27:44.226Z,12.55
2023-03-31T07:28:26.022Z,12.63
2023-03-31T07:29:07.817Z,12.81
2023-03-31T07:29:50.728Z,12.83
2023-03-31T07:30:32.729Z,12.97
2023-03-31T07:31:15.091Z,13.06
2023-03-31T07:31:56.927Z,13.11
2023-03-31T07:32:41.152Z,13.22
2023-03-31T07:33:22.942Z,13.21
2023-03-31T07:34:04.782Z,13.20
2023-03-31T07:34:46.572Z,13.04
2023-03-31T07:35:28.408Z,13.10
2023-03-31T07:36:15.966Z,13.11
2023-03-31T07:36:57.897Z,13.18
2023-03-31T07:37:43.318Z,13.21
2023-03-31T07:38:24.996Z,13.17
2023-03-31T07:39:07.160Z,13.14
2023-03-31T07:39:48.892Z,13.29
2023-03-31T07:40:30.587Z,13.19
2023-03-31T07:41:14.462Z,13.27
2023-03-31T07:41:56.100Z,13.26
2023-03-31T07:42:38.099Z,13.14
2023-03-31T07:43:19.704Z,13.23
2023-03-31T07:44:01.446Z,13.15
2023-03-31T07:44:43.259Z,13.18
2023-03-31T07:45:27.156Z,13.26
2023-03-31T07:46:18.885Z,13.27
2023-03-31T07:47:04.518Z,13.13
2023-03-31T07:47:46.815Z,13.26
2023-03-31T07:48:28.835Z,13.24
2023-03-31T07:49:10.630Z,13.20
2023-03-31T07:49:52.376Z,13.18
2023-03-31T07:50:34.101Z,13.18
2023-03-31T07:51:24.473Z,13.25
2023-03-31T07:52:06.534Z,13.18
2023-03-31T07:52:48.315Z,13.24
2023-03-31T07:53:29.992Z,13.26
2023-03-31T07:54:11.696Z,13.33
2023-03-31T07:54:53.416Z,13.29
2023-03-31T07:55:35.313Z,13.36
2023-03-31T07:56:17.272Z,13.45
2023-03-31T07:57:01.869Z,13.54
2023-03-31T07:57:45.990Z,13.45
2023-03-31T07:58:28.206Z,13.38
2023-03-31T07:59:10.040Z,13.48
2023-03-31T07:59:51.686Z,13.60
2023-03-31T08:00:33.376Z,13.60
2023-03-31T08:01:19.431Z,13.54
2023-03-31T08:02:01.252Z,13.48
2023-03-31T08:02:43.411Z,13.32
2023-03-31T08:03:25.264Z,13.51
2023-03-31T08:04:07.368Z,13.41
2023-03-31T08:04:49.534Z,13.43
2023-03-31T08:05:31.337Z,13.36
2023-03-31T08:06:19.442Z,13.30
2023-03-31T08:07:01.161Z,13.13
2023-03-31T08:07:45.255Z,13.13
2023-03-31T08:08:27.169Z,13.11
2023-03-31T08:09:08.932Z,13.04
2023-03-31T08:09:50.644Z,13.13
2023-03-31T08:10:32.370Z,13.10
2023-03-31T08:11:14.213Z,13.24
2023-03-31T08:11:55.894Z,13.51
2023-03-31T08:12:37.831Z,13.46
2023-03-31T08:13:19.533Z,13.50
2023-03-31T08:14:01.359Z,13.76
2023-03-31T08:14:43.466Z,13.85
2023-03-31T08:15:25.453Z,13.89
2023-03-31T08:16:07.651Z,13.97
2023-03-31T08:16:49.704Z,14.01
2023-03-31T08:17:31.483Z,14.24
2023-03-31T08:18:13.356Z,14.60
2023-03-31T08:18:55.148Z,14.88
2023-03-31T08:19:37.150Z,14.90
2023-03-31T08:20:18.963Z,14.70
2023-03-31T08:21:01.000Z,14.83
2023-03-31T08:21:42.675Z,14.78
2023-03-31T08:22:24.532Z,14.65
2023-03-31T08:23:09.155Z,14.50
2023-03-31T08:23:53.999Z,14.61
2023-03-31T08:24:35.804Z,14.55
2023-03-31T08:25:17.439Z,14.41
2023-03-31T08:26:09.550Z,14.43
2023-03-31T08:26:51.458Z,14.40
2023-03-31T08:27:34.755Z,14.49
2023-03-31T08:28:17.515Z,14.40
2023-03-31T08:28:59.230Z,14.29
2023-03-31T08:29:41.996Z,14.39
2023-03-31T08:30:23.712Z,14.38
2023-03-31T08:31:07.734Z,14.28
2023-03-31T08:31:49.612Z,14.43
2023-03-31T08:32:32.526Z,14.42
2023-03-31T08:33:14.371Z,14.52
2023-03-31T08:33:56.197Z,14.59
2023-03-31T08:34:38.124Z,14.54
2023-03-31T08:35:19.889Z,14.69
2023-03-31T08:36:03.973Z,14.70
2023-03-31T08:36:45.680Z,14.72
2023-03-31T08:37:28.335Z,14.72
2023-03-31T08:38:10.002Z,14.74
2023-03-31T08:38:51.740Z,14.71
2023-03-31T08:39:34.171Z,14.27
2023-03-31T08:40:20.841Z,14.89
2023-03-31T08:41:03.960Z,15.19
2023-03-31T08:41:45.844Z,15.46
2023-03-31T08:42:44.109Z,15.91
2023-03-31T08:43:32.671Z,16.17
2023-03-31T08:44:20.467Z,16.20
2023-03-31T08:45:17.109Z,16.56
2023-03-31T08:46:01.672Z,16.73
2023-03-31T08:46:44.007Z,16.99
2023-03-31T08:47:29.315Z,17.03
2023-03-31T08:48:29.466Z,17.34
2023-03-31T08:49:16.767Z,17.47
2023-03-31T08:50:07.563Z,17.50
2023-03-31T08:50:58.043Z,17.43
2023-03-31T08:51:44.078Z,17.23
2023-03-31T08:52:36.813Z,17.10
2023-03-31T08:53:27.591Z,16.78
2023-03-31T08:54:30.739Z,17.01
2023-03-31T08:55:20.862Z,16.94
2023-03-31T08:56:08.126Z,17.06
2023-03-31T08:56:51.153Z,16.88
2023-03-31T08:57:42.917Z,16.89
2023-03-31T08:58:40.285Z,17.03
2023-03-31T08:59:30.453Z,16.78
2023-03-31T09:00:17.489Z,17.09
2023-03-31T09:01:17.102Z,17.35
2023-03-31T09:02:20.637Z,17.39
2023-03-31T09:03:11.109Z,17.65
2023-03-31T09:04:17.462Z,17.65
2023-03-31T09:05:17.598Z,17.92
2023-03-31T09:06:07.792Z,18.01
2023-03-31T09:07:14.121Z,17.80
2023-03-31T09:08:13.209Z,17.78
2023-03-31T09:09:01.805Z,17.70
2023-03-31T09:09:56.285Z,17.45
2023-03-31T09:10:56.527Z,17.09
2023-03-31T09:11:50.775Z,16.83
2023-03-31T09:12:53.174Z,16.57
2023-03-31T09:13:40.565Z,16.47
2023-03-31T09:14:24.882Z,16.55
2023-03-31T09:15:13.584Z,16.64
2023-03-31T09:16:08.790Z,16.62
2023-03-31T09:17:14.276Z,16.53
2023-03-31T09:18:00.922Z,16.50
2023-03-31T09:18:46.795Z,16.66
2023-03-31T09:19:37.389Z,17.19
2023-03-31T09:20:26.336Z,17.79
2023-03-31T09:21:15.708Z,17.92
2023-03-31T09:22:01.537Z,17.60
2023-03-31T09:22:55.875Z,17.96
2023-03-31T09:23:46.230Z,17.96
2023-03-31T09:24:33.000Z,17.62
2023-03-31T09:25:38.184Z,17.56
2023-03-31T09:26:34.418Z,17.44
2023-03-31T09:27:16.613Z,17.32
2023-03-31T09:28:00.126Z,17.47
2023-03-31T09:28:43.440Z,18.02
2023-03-31T09:29:29.932Z,18.20
2023-03-31T09:30:20.972Z,18.27
2023-03-31T09:31:17.442Z,18.35
2023-03-31T09:32:11.400Z,18.40
2023-03-31T09:33:18.112Z,18.62
2023-03-31T09:34:10.242Z,18.56
2023-03-31T09:35:01.151Z,18.18
2023-03-31T09:35:46.838Z,17.90
2023-03-31T09:36:28.935Z,17.77
2023-03-31T09:37:12.464Z,18.02
2023-03-31T09:37:54.445Z,17.86
2023-03-31T09:38:37.138Z,17.68
2023-03-31T09:39:18.787Z,17.72
2023-03-31T09:40:07.411Z,17.82
2023-03-31T09:40:49.234Z,17.87
2023-03-31T09:41:33.042Z,17.85
2023-03-31T09:42:16.121Z,17.87
2023-03-31T09:43:05.231Z,18.49
2023-03-31T09:43:47.977Z,18.15
2023-03-31T09:44:40.347Z,18.00
2023-03-31T09:45:22.144Z,18.24
2023-03-31T09:46:13.298Z,18.61
2023-03-31T09:46:55.622Z,19.01
2023-03-31T09:47:46.317Z,19.07
2023-03-31T09:48:32.795Z,19.07
2023-03-31T09:49:17.837Z,19.36